createdAt,value
2023-01-05T00:01:06.987Z,14.77
2023-01-05T00:03:08.419Z,13.13
2023-01-05T00:05:09.972Z,11.45
2023-01-05T00:07:11.424Z,10.70
2023-01-05T00:09:17.512Z,8.18
2023-01-05T00:11:41.036Z,17.90
2023-01-05T00:14:00.825Z,19.52
2023-01-05T00:16:20.663Z,9.35
2023-01-05T00:18:40.595Z,15.60
2023-01-05T00:21:00.570Z,12.13
2023-01-05T00:23:02.453Z,6.75
2023-01-05T00:25:11.739Z,9.55
2023-01-05T00:27:14.208Z,11.50
2023-01-05T00:29:15.660Z,8.30
2023-01-05T00:31:17.157Z,12.10
2023-01-05T00:33:18.681Z,5.38
2023-01-05T00:35:21.478Z,9.43
2023-01-05T00:37:33.908Z,11.65
2023-01-05T00:39:35.376Z,14.43
2023-01-05T00:41:36.883Z,10.95
2023-01-05T00:43:38.340Z,9.60
2023-01-05T00:45:39.840Z,7.82
2023-01-05T00:47:41.665Z,7.60
2023-01-05T00:49:43.146Z,13.88
2023-01-05T00:51:44.591Z,9.90
2023-01-05T00:53:48.163Z,6.63
2023-01-05T00:55:57.042Z,7.55
2023-01-05T00:57:58.497Z,9.82
2023-01-05T01:00:02.133Z,9.57
2023-01-05T01:02:03.912Z,6.07
2023-01-05T01:04:05.567Z,9.75
2023-01-05T01:06:07.102Z,5.38
2023-01-05T01:08:08.537Z,8.15
2023-01-05T01:10:11.261Z,8.27
2023-01-05T01:12:12.737Z,6.78
2023-01-05T01:14:14.715Z,10.95
2023-01-05T01:16:16.316Z,17.15
2023-01-05T01:18:17.909Z,7.65
2023-01-05T01:20:20.191Z,11.27
2023-01-05T01:22:21.708Z,8.95
2023-01-05T01:24:25.981Z,8.15
2023-01-05T01:26:27.457Z,10.20
2023-01-05T01:28:28.900Z,8.70
2023-01-05T01:30:30.417Z,7.93
2023-01-05T01:32:31.938Z,8.35
2023-01-05T01:34:33.499Z,6.63
2023-01-05T01:36:35.125Z,9.57
2023-01-05T01:38:36.620Z,7.75
2023-01-05T01:40:43.526Z,6.38
2023-01-05T01:42:44.959Z,7.55
2023-01-05T01:44:53.848Z,7.40
2023-01-05T01:46:55.558Z,5.88
2023-01-05T01:49:02.673Z,2.63
2023-01-05T01:51:14.302Z,7.45
2023-01-05T01:53:20.733Z,7.20
2023-01-05T01:55:22.755Z,8.32
2023-01-05T01:57:28.073Z,5.47
2023-01-05T01:59:29.730Z,8.35
2023-01-05T02:01:31.844Z,7.60
2023-01-05T02:03:33.376Z,10.00
2023-01-05T02:05:38.024Z,5.28
2023-01-05T02:07:44.759Z,6.63
2023-01-05T02:09:46.756Z,7.85
2023-01-05T02:12:05.242Z,8.73
2023-01-05T02:14:26.258Z,8.65
2023-01-05T02:16:52.578Z,3.40
2023-01-05T02:19:07.232Z,8.13
2023-01-05T02:21:18.867Z,5.45
2023-01-05T02:23:48.258Z,2.97
2023-01-05T02:26:11.361Z,4.32
2023-01-05T02:28:39.480Z,3.78
2023-01-05T02:30:59.465Z,5.45
2023-01-05T02:33:54.901Z,9.75
2023-01-05T02:36:16.351Z,4.50
2023-01-05T02:38:37.615Z,2.67
2023-01-05T02:40:49.978Z,4.95
2023-01-05T02:42:55.240Z,2.47
2023-01-05T02:44:56.730Z,4.03
2023-01-05T02:47:28.292Z,4.05
2023-01-05T02:49:32.894Z,3.03
2023-01-05T02:51:40.589Z,4.32
2023-01-05T02:53:49.626Z,9.25
2023-01-05T02:55:59.381Z,5.05
2023-01-05T02:58:10.987Z,9.10
2023-01-05T03:00:26.912Z,5.80
2023-01-05T03:02:31.603Z,6.93
2023-01-05T03:05:09.826Z,6.05
2023-01-05T03:07:15.255Z,5.80
2023-01-05T03:09:25.984Z,9.85
2023-01-05T03:11:55.701Z,8.02
2023-01-05T03:14:08.559Z,7.07
2023-01-05T03:16:15.147Z,9.07
2023-01-05T03:18:20.292Z,10.43
2023-01-05T03:20:25.102Z,7.80
2023-01-05T03:22:48.810Z,8.80
2023-01-05T03:25:09.529Z,12.70
2023-01-05T03:27:30.981Z,11.23
2023-01-05T03:29:50.761Z,12.32
2023-01-05T03:32:18.047Z,8.68
2023-01-05T03:34:46.061Z,12.48
2023-01-05T03:36:58.472Z,6.72
2023-01-05T03:39:02.399Z,15.73
2023-01-05T03:41:10.207Z,9.10
2023-01-05T03:43:12.237Z,11.20
2023-01-05T03:45:15.500Z,12.60
2023-01-05T03:47:17.028Z,9.90
2023-01-05T03:49:18.842Z,16.40
2023-01-05T03:51:20.400Z,13.00
2023-01-05T03:53:21.894Z,9.95
2023-01-05T03:55:23.969Z,13.50
2023-01-05T03:57:25.458Z,11.57
2023-01-05T03:59:26.920Z,15.25
2023-01-05T04:01:28.488Z,14.40
2023-01-05T04:03:32.234Z,14.00
2023-01-05T04:05:33.965Z,17.48
2023-01-05T04:07:35.436Z,10.38
2023-01-05T04:09:36.904Z,21.00
2023-01-05T04:11:38.342Z,10.82
2023-01-05T04:13:40.022Z,18.13
2023-01-05T04:15:41.789Z,12.73
2023-01-05T04:17:43.280Z,12.23
2023-01-05T04:19:44.833Z,10.32
2023-01-05T04:21:46.290Z,10.32
2023-01-05T04:23:47.764Z,21.45
2023-01-05T04:25:49.230Z,14.88
2023-01-05T04:27:50.685Z,9.68
2023-01-05T04:29:52.174Z,15.15
2023-01-05T04:31:53.651Z,9.52
2023-01-05T04:33:55.123Z,8.35
2023-01-05T04:35:56.631Z,14.73
2023-01-05T04:37:58.221Z,10.40
2023-01-05T04:39:59.682Z,9.90
2023-01-05T04:42:01.357Z,11.38
2023-01-05T04:44:02.818Z,10.77
2023-01-05T04:46:04.486Z,15.43
2023-01-05T04:48:06.198Z,13.45
2023-01-05T04:50:08.492Z,14.68
2023-01-05T04:52:10.244Z,19.90
2023-01-05T04:54:11.711Z,9.77
2023-01-05T04:56:13.183Z,13.65
2023-01-05T04:58:14.641Z,11.75
2023-01-05T05:00:16.447Z,10.55
2023-01-05T05:02:18.042Z,9.45
2023-01-05T05:04:19.601Z,9.65
2023-01-05T05:06:21.851Z,16.65
2023-01-05T05:08:23.351Z,10.35
2023-01-05T05:10:24.891Z,10.80
2023-01-05T05:12:26.360Z,9.70
2023-01-05T05:14:27.814Z,11.52
2023-01-05T05:16:29.347Z,10.52
2023-01-05T05:18:30.872Z,14.43
2023-01-05T05:20:32.698Z,13.90
2023-01-05T05:22:34.181Z,14.18
2023-01-05T05:24:35.649Z,17.50
2023-01-05T05:26:37.119Z,14.30
2023-01-05T05:28:38.878Z,9.65
2023-01-05T05:30:40.348Z,14.88
2023-01-05T05:32:44.421Z,14.35
2023-01-05T05:34:46.180Z,14.82
2023-01-05T05:36:47.646Z,8.65
2023-01-05T05:38:49.135Z,14.50
2023-01-05T05:40:50.637Z,13.90
2023-01-05T05:42:52.185Z,13.23
2023-01-05T05:44:53.694Z,13.35
2023-01-05T05:46:55.280Z,10.77
2023-01-05T05:48:58.235Z,16.38
2023-01-05T05:50:59.744Z,13.35
2023-01-05T05:53:01.232Z,15.25
2023-01-05T05:55:02.837Z,14.10
2023-01-05T05:57:04.367Z,11.50
2023-01-05T05:59:05.907Z,13.30
2023-01-05T06:01:07.824Z,11.98
2023-01-05T06:03:09.725Z,13.70
2023-01-05T06:05:11.282Z,15.07
2023-01-05T06:07:12.852Z,10.75
2023-01-05T06:09:14.430Z,8.48
2023-01-05T06:11:16.045Z,9.57
2023-01-05T06:13:17.805Z,17.15
2023-01-05T06:15:19.247Z,15.13
2023-01-05T06:17:20.713Z,12.98
2023-01-05T06:19:22.198Z,20.15
2023-01-05T06:21:23.697Z,13.65
2023-01-05T06:23:25.230Z,14.63
2023-01-05T06:25:26.678Z,21.88
2023-01-05T06:27:28.244Z,13.32
2023-01-05T06:29:29.792Z,12.60
2023-01-05T06:31:31.333Z,15.90
2023-01-05T06:33:32.848Z,8.50
2023-01-05T06:35:34.302Z,15.30
2023-01-05T06:37:35.848Z,9.43
2023-01-05T06:39:37.353Z,10.65
2023-01-05T06:41:38.822Z,10.93
2023-01-05T06:43:40.280Z,14.90
2023-01-05T06:45:41.822Z,11.93
2023-01-05T06:47:44.266Z,10.18
2023-01-05T06:49:45.734Z,12.20
2023-01-05T06:51:47.265Z,13.63
2023-01-05T06:53:48.713Z,12.23
2023-01-05T06:55:50.169Z,18.92
2023-01-05T06:57:57.087Z,10.30
2023-01-05T07:00:06.444Z,10.38
2023-01-05T07:02:15.974Z,11.15
2023-01-05T07:04:17.687Z,9.68
2023-01-05T07:06:19.337Z,12.52
2023-01-05T07:08:20.833Z,15.88
2023-01-05T07:10:22.297Z,11.13
2023-01-05T07:12:23.800Z,10.10
2023-01-05T07:14:25.279Z,9.90
2023-01-05T07:16:27.195Z,11.23
2023-01-05T07:18:28.700Z,14.38
2023-01-05T07:20:30.236Z,9.63
2023-01-05T07:22:32.098Z,12.27
2023-01-05T07:24:33.670Z,10.50
2023-01-05T07:26:35.118Z,10.63
2023-01-05T07:28:37.993Z,12.05
2023-01-05T07:30:39.441Z,16.15
2023-01-05T07:32:40.897Z,13.20
2023-01-05T07:34:47.500Z,5.05
2023-01-05T07:36:56.004Z,6.47
2023-01-05T07:38:59.515Z,7.13
2023-01-05T07:41:02.163Z,6.57
2023-01-05T07:43:03.697Z,9.98
2023-01-05T07:45:05.744Z,4.78
2023-01-05T07:47:07.271Z,6.00
2023-01-05T07:49:08.738Z,2.90
2023-01-05T07:51:10.959Z,5.35
2023-01-05T07:53:12.412Z,6.32
2023-01-05T07:55:14.149Z,6.93
2023-01-05T07:57:15.629Z,2.83
2023-01-05T07:59:17.218Z,1.58
2023-01-05T08:01:18.780Z,2.97
2023-01-05T08:03:20.409Z,4.75
2023-01-05T08:05:21.918Z,2.22
2023-01-05T08:07:23.387Z,9.02
2023-01-05T08:09:43.607Z,3.08
2023-01-05T08:11:45.056Z,7.57
2023-01-05T08:14:02.660Z,4.05
2023-01-05T08:16:04.766Z,6.32
2023-01-05T08:18:06.278Z,9.77
2023-01-05T08:20:08.175Z,2.15
2023-01-05T08:22:09.620Z,4.97
2023-01-05T08:24:11.154Z,9.73
2023-01-05T08:26:17.703Z,3.55
2023-01-05T08:28:19.225Z,2.83
2023-01-05T08:30:20.831Z,2.58
2023-01-05T08:32:23.279Z,3.63
2023-01-05T08:34:27.662Z,3.15
2023-01-05T08:36:33.372Z,3.80
2023-01-05T08:38:34.833Z,5.10
2023-01-05T08:40:37.937Z,3.30
2023-01-05T08:42:40.594Z,2.35
2023-01-05T08:44:42.106Z,2.58
2023-01-05T08:46:43.686Z,4.25
2023-01-05T08:48:48.858Z,2.28
2023-01-05T08:50:50.337Z,3.78
2023-01-05T08:52:51.809Z,3.45
2023-01-05T08:54:53.318Z,3.38
2023-01-05T08:56:54.863Z,3.10
2023-01-05T08:58:57.524Z,2.30
2023-01-05T09:00:59.119Z,4.28
2023-01-05T09:03:01.326Z,4.68
2023-01-05T09:05:03.130Z,6.07
2023-01-05T09:07:04.650Z,5.75
2023-01-05T09:09:06.387Z,1.60
2023-01-05T09:11:14.402Z,6.25
2023-01-05T09:13:15.917Z,4.35
2023-01-05T09:15:17.490Z,2.17
2023-01-05T09:17:19.027Z,4.68
2023-01-05T09:19:20.528Z,5.57
2023-01-05T09:21:22.012Z,2.30
2023-01-05T09:23:23.486Z,3.20
2023-01-05T09:25:24.955Z,5.85
2023-01-05T09:27:26.466Z,6.07
2023-01-05T09:29:27.926Z,5.60
2023-01-05T09:31:29.844Z,3.85
2023-01-05T09:33:31.329Z,8.55
2023-01-05T09:35:32.798Z,8.52
2023-01-05T09:37:34.367Z,5.28
2023-01-05T09:39:35.926Z,4.97
2023-01-05T09:41:44.892Z,4.60
2023-01-05T09:43:48.945Z,9.18
2023-01-05T09:45:50.752Z,4.35
2023-01-05T09:47:55.182Z,6.30
2023-01-05T09:49:58.878Z,5.60
2023-01-05T09:52:03.011Z,4.03
2023-01-05T09:54:04.737Z,2.28
2023-01-05T09:56:28.157Z,4.13
2023-01-05T09:58:42.752Z,2.45
2023-01-05T10:00:57.669Z,7.82
2023-01-05T10:03:02.800Z,5.95
2023-01-05T10:05:06.349Z,6.55
2023-01-05T10:07:20.937Z,4.03
2023-01-05T10:09:27.633Z,7.07
2023-01-05T10:12:08.781Z,4.45
2023-01-05T10:14:16.101Z,5.75
2023-01-05T10:16:17.985Z,8.20
2023-01-05T10:18:29.593Z,9.13
2023-01-05T10:21:08.663Z,7.20
2023-01-05T10:23:42.565Z,7.85
2023-01-05T10:25:53.158Z,8.45
2023-01-05T10:27:56.822Z,7.38
2023-01-05T10:30:22.032Z,5.03
2023-01-05T10:32:26.823Z,7.30
2023-01-05T10:34:59.468Z,6.85
2023-01-05T10:37:23.610Z,5.05
2023-01-05T10:39:55.732Z,5.55
2023-01-05T10:42:16.429Z,4.88
2023-01-05T10:44:45.413Z,5.05
2023-01-05T10:46:52.746Z,8.98
2023-01-05T10:48:54.574Z,5.18
2023-01-05T10:50:57.576Z,5.47
2023-01-05T10:53:00.108Z,4.95
2023-01-05T10:55:02.306Z,9.43
2023-01-05T10:57:33.986Z,5.45
2023-01-05T10:59:58.389Z,3.97
2023-01-05T11:02:00.161Z,5.00
2023-01-05T11:04:33.770Z,7.00
2023-01-05T11:06:37.732Z,8.85
2023-01-05T11:08:39.216Z,4.88
2023-01-05T11:11:01.533Z,8.00
2023-01-05T11:13:05.546Z,7.43
2023-01-05T11:15:15.153Z,8.15
2023-01-05T11:17:20.603Z,7.40
2023-01-05T11:19:29.757Z,6.25
2023-01-05T11:21:39.414Z,4.95
2023-01-05T11:23:49.740Z,3.92
2023-01-05T11:25:51.265Z,6.43
2023-01-05T11:28:12.750Z,3.25
2023-01-05T11:30:24.494Z,3.85
2023-01-05T11:32:26.149Z,4.25
2023-01-05T11:34:48.521Z,3.67
2023-01-05T11:37:03.930Z,4.22
2023-01-05T11:39:24.163Z,5.45
2023-01-05T11:41:25.739Z,2.88
2023-01-05T11:43:30.390Z,7.70
2023-01-05T11:45:41.375Z,4.50
2023-01-05T11:47:48.956Z,2.58
2023-01-05T11:50:09.706Z,4.75
2023-01-05T11:52:26.588Z,3.13
2023-01-05T11:54:38.278Z,4.32
2023-01-05T11:56:39.802Z,4.72
2023-01-05T11:58:45.708Z,4.28
2023-01-05T12:01:25.650Z,4.07
2023-01-05T12:04:03.821Z,5.60
2023-01-05T12:06:27.238Z,6.32
2023-01-05T12:08:41.578Z,6.20
2023-01-05T12:11:11.286Z,6.35
2023-01-05T12:13:41.625Z,3.22
2023-01-05T12:15:50.287Z,5.82
2023-01-05T12:20:33.130Z,5.55
2023-01-05T12:23:02.404Z,6.72
2023-01-05T12:25:26.146Z,9.48
2023-01-05T12:28:08.995Z,6.28
2023-01-05T12:35:50.048Z,4.97
2023-01-05T12:38:09.900Z,6.30
2023-01-05T12:40:37.085Z,7.10
2023-01-05T12:42:59.594Z,2.03
2023-01-05T12:45:26.701Z,3.38
2023-01-05T12:47:37.219Z,11.30
2023-01-05T12:49:51.707Z,4.35
2023-01-05T12:52:15.844Z,5.60
2023-01-05T12:54:31.438Z,3.22
2023-01-05T12:56:41.856Z,7.85
2023-01-05T12:58:54.402Z,7.28
2023-01-05T13:00:57.691Z,5.05
2023-01-05T13:03:08.417Z,8.40
2023-01-05T13:05:31.191Z,7.22
2023-01-05T13:07:46.313Z,4.50
2023-01-05T13:10:02.092Z,4.38
2023-01-05T13:12:13.625Z,6.95
2023-01-05T13:14:21.719Z,7.13
2023-01-05T13:16:27.519Z,4.40
2023-01-05T13:18:30.395Z,5.40
2023-01-05T13:20:43.139Z,4.68
2023-01-05T13:22:47.522Z,6.57
2023-01-05T13:25:10.645Z,2.40
2023-01-05T13:27:13.800Z,2.78
2023-01-05T13:29:27.634Z,3.90
2023-01-05T13:31:38.531Z,6.32
2023-01-05T13:34:04.788Z,6.43
2023-01-05T13:36:25.775Z,3.13
2023-01-05T13:38:30.243Z,5.28
2023-01-05T13:40:56.647Z,2.75
2023-01-05T13:43:31.128Z,5.05
2023-01-05T13:45:52.389Z,5.03
2023-01-05T13:48:38.655Z,9.40
2023-01-05T13:51:12.799Z,4.05
2023-01-05T13:53:24.758Z,3.83
2023-01-05T13:55:27.395Z,4.50
2023-01-05T13:57:35.363Z,2.05
2023-01-05T13:59:46.713Z,3.35
2023-01-05T14:01:56.307Z,5.60
2023-01-05T14:03:57.889Z,3.67
2023-01-05T14:06:02.626Z,6.45
2023-01-05T14:08:13.981Z,6.97
2023-01-05T14:10:27.941Z,3.22
2023-01-05T14:12:46.059Z,8.55
2023-01-05T14:15:02.107Z,4.28
2023-01-05T14:17:03.583Z,5.93
2023-01-05T14:19:25.280Z,3.63
2023-01-05T14:21:51.470Z,8.00
2023-01-05T14:23:57.839Z,4.90
2023-01-05T14:26:01.204Z,4.20
2023-01-05T14:28:35.933Z,4.57
2023-01-05T14:30:37.390Z,9.63
2023-01-05T14:32:41.380Z,8.63
2023-01-05T14:34:48.976Z,6.22
2023-01-05T14:36:56.668Z,7.95
2023-01-05T14:39:18.328Z,7.18
2023-01-05T14:41:26.711Z,7.97
2023-01-05T14:45:36.545Z,9.93
2023-01-05T14:47:37.986Z,4.55
2023-01-05T14:49:54.507Z,5.45
2023-01-05T14:52:01.201Z,8.07
2023-01-05T14:54:05.425Z,7.25
2023-01-05T14:56:06.869Z,3.83
2023-01-05T14:58:13.023Z,4.28
2023-01-05T15:00:30.452Z,2.50
2023-01-05T15:02:37.726Z,4.13
2023-01-05T15:04:41.468Z,3.67
2023-01-05T15:07:10.214Z,4.13
2023-01-05T15:09:26.795Z,6.80
2023-01-05T15:11:47.447Z,7.95
2023-01-05T15:14:37.516Z,3.00
2023-01-05T15:16:56.472Z,3.42
2023-01-05T15:19:18.964Z,5.45
2023-01-05T15:21:53.423Z,6.50
2023-01-05T15:24:28.616Z,8.15
2023-01-05T15:26:30.048Z,3.17
2023-01-05T15:28:34.508Z,4.50
2023-01-05T15:30:44.380Z,5.03
2023-01-05T15:32:52.884Z,4.50
2023-01-05T15:35:09.361Z,4.15
2023-01-05T15:37:33.759Z,7.72
2023-01-05T15:40:04.345Z,5.43
2023-01-05T15:42:08.415Z,7.93
2023-01-05T15:44:16.498Z,8.30
2023-01-05T15:46:26.224Z,6.18
2023-01-05T15:48:34.169Z,4.80
2023-01-05T15:50:47.692Z,5.07
2023-01-05T15:53:02.273Z,3.58
2023-01-05T15:55:16.354Z,7.75
2023-01-05T15:57:20.679Z,4.57
2023-01-05T15:59:32.820Z,7.38
2023-01-05T16:01:37.793Z,4.32
2023-01-05T16:03:41.949Z,8.98
2023-01-05T16:05:43.568Z,4.07
2023-01-05T16:07:59.817Z,11.13
2023-01-05T16:10:01.364Z,7.78
2023-01-05T16:12:23.335Z,5.28
2023-01-05T16:14:31.412Z,7.28
2023-01-05T16:16:52.572Z,10.02
2023-01-05T16:19:00.538Z,6.72
2023-01-05T16:21:34.345Z,6.88
2023-01-05T16:23:42.098Z,4.53
2023-01-05T16:25:54.367Z,4.43
2023-01-05T16:28:03.378Z,5.63
2023-01-05T16:30:28.518Z,4.00
2023-01-05T16:32:36.872Z,3.67
2023-01-05T16:34:38.363Z,7.68
2023-01-05T16:36:39.866Z,8.95
2023-01-05T16:38:41.712Z,2.13
2023-01-05T16:40:45.957Z,6.55
2023-01-05T16:42:50.542Z,3.67
2023-01-05T16:44:56.563Z,4.22
2023-01-05T16:47:09.649Z,5.80
2023-01-05T16:49:33.091Z,3.50
2023-01-05T16:51:37.214Z,4.28
2023-01-05T16:53:44.918Z,2.60
2023-01-05T16:55:46.395Z,4.72
2023-01-05T16:57:47.857Z,7.07
2023-01-05T16:59:52.757Z,5.53
2023-01-05T17:01:54.268Z,4.80
2023-01-05T17:03:55.826Z,5.15
2023-01-05T17:05:59.242Z,6.55
2023-01-05T17:08:17.930Z,6.68
2023-01-05T17:12:22.799Z,3.92
2023-01-05T17:14:26.565Z,6.22
2023-01-05T17:16:28.454Z,4.40
2023-01-05T17:18:30.685Z,4.38
2023-01-05T17:22:44.578Z,3.83
2023-01-05T17:24:46.302Z,7.85
2023-01-05T17:26:47.786Z,6.25
2023-01-05T17:28:49.854Z,5.25
2023-01-05T17:30:52.508Z,4.45
2023-01-05T17:32:54.072Z,7.55
2023-01-05T17:34:55.570Z,4.35
2023-01-05T17:36:59.765Z,6.88
2023-01-05T17:39:01.661Z,6.20
2023-01-05T17:41:03.252Z,13.18
2023-01-05T17:43:05.338Z,8.43
2023-01-05T17:45:07.225Z,7.40
2023-01-05T17:47:08.747Z,9.82
2023-01-05T17:49:15.985Z,9.32
2023-01-05T17:51:17.597Z,10.70
2023-01-05T17:53:19.044Z,4.47
2023-01-05T17:55:21.633Z,6.57
2023-01-05T17:57:23.222Z,9.38
2023-01-05T17:59:24.821Z,6.97
2023-01-05T18:01:26.346Z,5.53
2023-01-05T18:03:27.841Z,9.15
2023-01-05T18:05:29.357Z,10.30
2023-01-05T18:07:32.050Z,8.73
2023-01-05T18:09:35.329Z,6.13
2023-01-05T18:11:36.834Z,8.82
2023-01-05T18:13:38.474Z,13.20
2023-01-05T18:15:44.914Z,6.22
2023-01-05T18:17:46.760Z,6.13
2023-01-05T18:19:48.400Z,14.98
2023-01-05T18:21:49.880Z,7.28
2023-01-05T18:23:51.387Z,10.05
2023-01-05T18:25:52.909Z,8.35
2023-01-05T18:27:54.421Z,8.80
2023-01-05T18:29:56.715Z,5.88
2023-01-05T18:31:58.147Z,7.38
2023-01-05T18:33:59.724Z,8.65
2023-01-05T18:38:08.712Z,8.73
2023-01-05T18:40:11.087Z,5.15
2023-01-05T18:42:12.623Z,14.02
2023-01-05T18:44:14.192Z,8.40
2023-01-05T18:46:15.720Z,7.97
2023-01-05T18:48:17.244Z,12.07
2023-01-05T18:50:18.946Z,14.13
2023-01-05T18:52:20.737Z,7.95
2023-01-05T18:54:22.305Z,9.95
2023-01-05T18:56:23.780Z,13.18
2023-01-05T18:58:25.269Z,12.13
2023-01-05T19:00:26.745Z,10.38
2023-01-05T19:02:29.453Z,8.98
2023-01-05T19:04:30.970Z,12.82
2023-01-05T19:06:32.463Z,9.93
2023-01-05T19:08:34.269Z,14.85
2023-01-05T19:10:36.204Z,11.43
2023-01-05T19:12:37.679Z,14.55
2023-01-05T19:14:39.180Z,24.05
2023-01-05T19:16:41.111Z,12.98
2023-01-05T19:18:43.756Z,12.77
2023-01-05T19:20:45.216Z,10.27
2023-01-05T19:22:47.869Z,13.32
2023-01-05T19:24:49.318Z,10.95
2023-01-05T19:26:51.219Z,13.18
2023-01-05T19:28:52.733Z,20.02
2023-01-05T19:30:54.239Z,15.48
2023-01-05T19:32:55.755Z,20.90
2023-01-05T19:34:57.226Z,17.45
2023-01-05T19:36:58.762Z,20.98
2023-01-05T19:39:11.453Z,24.38
2023-01-05T19:41:18.513Z,19.13
2023-01-05T19:43:19.966Z,20.38
2023-01-05T19:45:21.628Z,23.23
2023-01-05T19:47:23.106Z,22.52
2023-01-05T19:49:26.584Z,22.85
2023-01-05T19:51:29.749Z,19.67
2023-01-05T19:53:33.481Z,20.95
2023-01-05T19:55:38.752Z,24.52
2023-01-05T19:57:40.319Z,27.35
2023-01-05T19:59:41.843Z,16.55
2023-01-05T20:01:43.435Z,24.00
2023-01-05T20:03:46.849Z,21.95
2023-01-05T20:05:48.277Z,25.83
2023-01-05T20:07:49.741Z,24.20
2023-01-05T20:09:51.479Z,26.00
2023-01-05T20:12:12.674Z,22.77
2023-01-05T20:14:15.114Z,25.50
2023-01-05T20:16:16.619Z,27.73
2023-01-05T20:18:18.116Z,18.63
2023-01-05T20:20:19.686Z,22.77
2023-01-05T20:22:21.142Z,26.80
2023-01-05T20:24:25.283Z,23.90
2023-01-05T20:26:28.182Z,24.40
2023-01-05T20:28:29.636Z,29.23
2023-01-05T20:30:34.313Z,30.30
2023-01-05T20:32:36.331Z,22.60
2023-01-05T20:34:39.641Z,23.50
2023-01-05T20:36:41.369Z,27.80
2023-01-05T20:38:43.439Z,25.98
2023-01-05T20:40:44.913Z,25.52
2023-01-05T20:42:46.460Z,24.08
2023-01-05T20:44:48.132Z,26.52
2023-01-05T20:46:51.701Z,22.88
2023-01-05T20:48:54.013Z,29.77
2023-01-05T20:51:05.419Z,26.15
2023-01-05T20:53:06.963Z,18.73
2023-01-05T20:55:08.509Z,23.33
2023-01-05T20:57:10.216Z,28.00
2023-01-05T20:59:17.885Z,29.15
2023-01-05T21:01:19.983Z,24.73
2023-01-05T21:03:21.476Z,29.55
2023-01-05T21:05:23.058Z,26.63
2023-01-05T21:07:24.763Z,28.48
2023-01-05T21:09:28.404Z,26.77
2023-01-05T21:11:29.877Z,32.22
2023-01-05T21:13:33.109Z,35.13
2023-01-05T21:15:34.801Z,25.02
2023-01-05T21:17:36.282Z,28.50
2023-01-05T21:19:37.901Z,32.17
2023-01-05T21:21:39.360Z,34.08
2023-01-05T21:23:41.262Z,28.55
2023-01-05T21:26:05.692Z,37.45
2023-01-05T21:28:05.766Z,33.15
2023-01-05T21:30:08.150Z,37.28
2023-01-05T21:32:09.687Z,40.38
2023-01-05T21:34:11.744Z,38.53
2023-01-05T21:36:19.402Z,37.83
2023-01-05T21:38:20.855Z,43.55
2023-01-05T21:40:27.744Z,29.35
2023-01-05T21:42:42.489Z,37.08
2023-01-05T21:44:44.040Z,33.58
2023-01-05T21:46:46.735Z,34.05
2023-01-05T21:48:48.173Z,35.42
2023-01-05T21:51:08.235Z,32.00
2023-01-05T21:53:33.626Z,46.42
2023-01-05T21:55:53.531Z,35.88
2023-01-05T21:57:55.103Z,41.05
2023-01-05T21:59:56.586Z,30.42
2023-01-05T22:01:58.212Z,28.08
2023-01-05T22:03:59.778Z,38.25
2023-01-05T22:06:01.286Z,22.15
2023-01-05T22:08:02.818Z,34.42
2023-01-05T22:10:05.106Z,27.60
2023-01-05T22:12:09.969Z,24.65
2023-01-05T22:14:11.457Z,46.63
2023-01-05T22:16:13.059Z,26.35
2023-01-05T22:18:14.599Z,28.33
2023-01-05T22:20:16.236Z,34.13
2023-01-05T22:22:17.710Z,33.13
2023-01-05T22:24:19.610Z,26.00
2023-01-05T22:26:21.228Z,34.75
2023-01-05T22:28:22.684Z,34.55
2023-01-05T22:30:25.984Z,34.22
2023-01-05T22:32:27.452Z,31.58
2023-01-05T22:34:28.912Z,29.52
2023-01-05T22:36:31.089Z,38.70
2023-01-05T22:38:38.877Z,29.95
2023-01-05T22:40:40.428Z,33.05
2023-01-05T22:42:41.924Z,33.35
2023-01-05T22:44:43.463Z,33.85
2023-01-05T22:46:44.935Z,30.92
2023-01-05T22:48:48.851Z,30.92
2023-01-05T22:50:50.301Z,34.13
2023-01-05T22:52:51.765Z,41.10
2023-01-05T22:54:53.301Z,32.08
2023-01-05T22:56:54.766Z,35.58
2023-01-05T22:58:57.186Z,39.78
2023-01-05T23:01:22.783Z,34.50
2023-01-05T23:03:24.263Z,42.95
2023-01-05T23:05:25.989Z,35.47
2023-01-05T23:07:27.539Z,38.75
2023-01-05T23:09:29.068Z,44.15
2023-01-05T23:11:34.392Z,35.70
2023-01-05T23:13:36.557Z,35.65
2023-01-05T23:15:38.009Z,34.42
2023-01-05T23:17:39.473Z,33.03
2023-01-05T23:19:40.904Z,41.47
2023-01-05T23:21:42.623Z,43.08
2023-01-05T23:23:44.565Z,36.28
2023-01-05T23:25:46.784Z,37.28
2023-01-05T23:27:48.250Z,45.67
2023-01-05T23:29:49.703Z,39.17
2023-01-05T23:31:51.167Z,37.72
2023-01-05T23:33:52.743Z,42.17
2023-01-05T23:35:55.381Z,38.53
2023-01-05T23:37:56.823Z,40.72
2023-01-05T23:39:58.290Z,35.65
2023-01-05T23:41:59.791Z,36.47
2023-01-05T23:44:01.308Z,42.47
2023-01-05T23:46:09.421Z,42.25
2023-01-05T23:48:11.999Z,40.90
2023-01-05T23:50:13.476Z,46.95
2023-01-05T23:52:14.927Z,37.03
2023-01-05T23:54:16.449Z,43.90
2023-01-05T23:56:20.936Z,47.30
2023-01-05T23:58:22.389Z,44.90
